sensor_id;sensor_type;location;lat;lon;timestamp;temperature;humidity
53053;DHT22;38934;52.690;6.184;2022-07-25T00:00:22;22.70;99.90
53053;DHT22;38934;52.690;6.184;2022-07-25T00:02:48;22.70;99.90
53053;DHT22;38934;52.690;6.184;2022-07-25T00:05:14;22.60;99.90
53053;DHT22;38934;52.690;6.184;2022-07-25T00:07:40;22.60;99.90
53053;DHT22;38934;52.690;6.184;2022-07-25T00:10:06;23.00;99.90
53053;DHT22;38934;52.690;6.184;2022-07-25T00:12:31;22.60;99.90
53053;DHT22;38934;52.690;6.184;2022-07-25T00:14:57;22.50;99.90
53053;DHT22;38934;52.690;6.184;2022-07-25T00:17:23;22.70;99.90
53053;DHT22;38934;52.690;6.184;2022-07-25T00:19:48;22.50;99.90
53053;DHT22;38934;52.690;6.184;2022-07-25T00:22:14;22.60;99.90
53053;DHT22;38934;52.690;6.184;2022-07-25T00:24:40;22.40;99.90
53053;DHT22;38934;52.690;6.184;2022-07-25T00:27:05;22.40;99.90
53053;DHT22;38934;52.690;6.184;2022-07-25T00:29:31;22.30;99.90
53053;DHT22;38934;52.690;6.184;2022-07-25T00:31:56;22.30;99.90
53053;DHT22;38934;52.690;6.184;2022-07-25T00:34:22;22.20;99.90
53053;DHT22;38934;52.690;6.184;2022-07-25T00:36:48;22.20;99.90
53053;DHT22;38934;52.690;6.184;2022-07-25T00:39:15;22.10;99.90
53053;DHT22;38934;52.690;6.184;2022-07-25T00:41:42;22.20;99.90
53053;DHT22;38934;52.690;6.184;2022-07-25T00:44:09;22.10;99.90
53053;DHT22;38934;52.690;6.184;2022-07-25T00:46:37;22.10;99.90
53053;DHT22;38934;52.690;6.184;2022-07-25T00:49:03;22.00;99.90
53053;DHT22;38934;52.690;6.184;2022-07-25T00:51:28;22.00;99.90
53053;DHT22;38934;52.690;6.184;2022-07-25T00:53:55;21.90;99.90
53053;DHT22;38934;52.690;6.184;2022-07-25T00:56:22;22.00;99.90
53053;DHT22;38934;52.690;6.184;2022-07-25T00:58:48;21.80;99.90
53053;DHT22;38934;52.690;6.184;2022-07-25T01:01:14;22.10;99.90
53053;DHT22;38934;52.690;6.184;2022-07-25T01:03:40;21.70;99.90
53053;DHT22;38934;52.690;6.184;2022-07-25T01:06:06;21.70;99.90
53053;DHT22;38934;52.690;6.184;2022-07-25T01:08:32;21.70;99.90
53053;DHT22;38934;52.690;6.184;2022-07-25T01:10:57;21.60;99.90
53053;DHT22;38934;52.690;6.184;2022-07-25T01:13:23;21.60;99.90
53053;DHT22;38934;52.690;6.184;2022-07-25T01:15:49;21.60;99.90
53053;DHT22;38934;52.690;6.184;2022-07-25T01:18:16;21.50;99.90
53053;DHT22;38934;52.690;6.184;2022-07-25T01:20:41;21.50;99.90
53053;DHT22;38934;52.690;6.184;2022-07-25T01:23:07;21.50;99.90
53053;DHT22;38934;52.690;6.184;2022-07-25T01:25:32;21.50;99.90
53053;DHT22;38934;52.690;6.184;2022-07-25T01:27:58;21.40;99.90
53053;DHT22;38934;52.690;6.184;2022-07-25T01:30:24;21.40;99.90
53053;DHT22;38934;52.690;6.184;2022-07-25T01:32:50;21.40;99.90
53053;DHT22;38934;52.690;6.184;2022-07-25T01:35:16;21.60;99.90
53053;DHT22;38934;52.690;6.184;2022-07-25T01:37:42;21.30;99.90
53053;DHT22;38934;52.690;6.184;2022-07-25T01:40:07;21.30;99.90
53053;DHT22;38934;52.690;6.184;2022-07-25T01:42:33;21.30;99.90
53053;DHT22;38934;52.690;6.184;2022-07-25T01:44:59;21.30;99.90
53053;DHT22;38934;52.690;6.184;2022-07-25T01:47:25;21.20;99.90
53053;DHT22;38934;52.690;6.184;2022-07-25T01:49:51;21.40;99.90
53053;DHT22;38934;52.690;6.184;2022-07-25T01:52:17;21.30;99.90
53053;DHT22;38934;52.690;6.184;2022-07-25T01:54:42;21.30;99.90
53053;DHT22;38934;52.690;6.184;2022-07-25T01:57:08;21.20;99.90
53053;DHT22;38934;52.690;6.184;2022-07-25T01:59:38;21.30;99.90
53053;DHT22;38934;52.690;6.184;2022-07-25T02:02:06;21.30;99.90
53053;DHT22;38934;52.690;6.184;2022-07-25T02:04:32;21.30;99.90
53053;DHT22;38934;52.690;6.184;2022-07-25T02:06:57;21.30;99.90
53053;DHT22;38934;52.690;6.184;2022-07-25T02:09:23;21.20;99.90
53053;DHT22;38934;52.690;6.184;2022-07-25T02:11:48;21.20;99.90
53053;DHT22;38934;52.690;6.184;2022-07-25T02:14:14;21.10;99.90
53053;DHT22;38934;52.690;6.184;2022-07-25T02:16:39;21.20;99.90
53053;DHT22;38934;52.690;6.184;2022-07-25T02:19:05;21.10;99.90
53053;DHT22;38934;52.690;6.184;2022-07-25T02:21:31;21.10;99.90
53053;DHT22;38934;52.690;6.184;2022-07-25T02:23:56;21.10;99.90
53053;DHT22;38934;52.690;6.184;2022-07-25T02:26:22;21.10;99.90
53053;DHT22;38934;52.690;6.184;2022-07-25T02:28:48;21.20;99.90
53053;DHT22;38934;52.690;6.184;2022-07-25T02:31:15;21.10;99.90
53053;DHT22;38934;52.690;6.184;2022-07-25T02:33:40;21.20;99.90
53053;DHT22;38934;52.690;6.184;2022-07-25T02:36:06;21.00;99.90
53053;DHT22;38934;52.690;6.184;2022-07-25T02:38:32;21.00;99.90
53053;DHT22;38934;52.690;6.184;2022-07-25T02:40:58;21.00;99.90
53053;DHT22;38934;52.690;6.184;2022-07-25T02:43:23;21.00;99.90
53053;DHT22;38934;52.690;6.184;2022-07-25T02:45:49;20.90;99.90
53053;DHT22;38934;52.690;6.184;2022-07-25T02:48:14;21.00;99.90
53053;DHT22;38934;52.690;6.184;2022-07-25T02:50:40;21.00;99.90
53053;DHT22;38934;52.690;6.184;2022-07-25T02:53:06;20.80;99.90
53053;DHT22;38934;52.690;6.184;2022-07-25T02:55:31;20.80;99.90
53053;DHT22;38934;52.690;6.184;2022-07-25T02:57:57;21.00;99.90
53053;DHT22;38934;52.690;6.184;2022-07-25T03:00:22;20.80;99.90
53053;DHT22;38934;52.690;6.184;2022-07-25T03:02:48;20.70;99.90
53053;DHT22;38934;52.690;6.184;2022-07-25T03:05:14;20.70;99.90
53053;DHT22;38934;52.690;6.184;2022-07-25T03:07:41;20.70;99.90
53053;DHT22;38934;52.690;6.184;2022-07-25T03:10:08;20.70;99.90
53053;DHT22;38934;52.690;6.184;2022-07-25T03:12:35;20.60;99.90
53053;DHT22;38934;52.690;6.184;2022-07-25T03:15:02;20.60;99.90
53053;DHT22;38934;52.690;6.184;2022-07-25T03:17:28;20.60;99.90
53053;DHT22;38934;52.690;6.184;2022-07-25T03:19:54;20.50;99.90
53053;DHT22;38934;52.690;6.184;2022-07-25T03:22:20;20.50;99.90
53053;DHT22;38934;52.690;6.184;2022-07-25T03:24:46;20.90;99.90
53053;DHT22;38934;52.690;6.184;2022-07-25T03:27:12;20.50;99.90
53053;DHT22;38934;52.690;6.184;2022-07-25T03:29:37;20.50;99.90
53053;DHT22;38934;52.690;6.184;2022-07-25T03:32:03;20.60;99.90
53053;DHT22;38934;52.690;6.184;2022-07-25T03:34:29;20.50;99.90
53053;DHT22;38934;52.690;6.184;2022-07-25T03:36:55;20.50;99.90
53053;DHT22;38934;52.690;6.184;2022-07-25T03:39:21;20.50;99.90
53053;DHT22;38934;52.690;6.184;2022-07-25T03:41:46;20.50;99.90
53053;DHT22;38934;52.690;6.184;2022-07-25T03:44:12;20.50;99.90
53053;DHT22;38934;52.690;6.184;2022-07-25T03:46:38;20.50;99.90
53053;DHT22;38934;52.690;6.184;2022-07-25T03:49:04;20.80;99.90
53053;DHT22;38934;52.690;6.184;2022-07-25T03:51:30;20.60;99.90
53053;DHT22;38934;52.690;6.184;2022-07-25T03:53:55;20.50;99.90
53053;DHT22;38934;52.690;6.184;2022-07-25T03:56:44;20.50;99.90
53053;DHT22;38934;52.690;6.184;2022-07-25T03:59:12;20.50;99.90
53053;DHT22;38934;52.690;6.184;2022-07-25T04:01:38;20.50;99.90
53053;DHT22;38934;52.690;6.184;2022-07-25T04:04:04;20.50;99.90
53053;DHT22;38934;52.690;6.184;2022-07-25T04:06:30;20.50;99.90
53053;DHT22;38934;52.690;6.184;2022-07-25T04:08:56;20.50;99.90
53053;DHT22;38934;52.690;6.184;2022-07-25T04:11:23;20.50;99.90
53053;DHT22;38934;52.690;6.184;2022-07-25T04:13:49;20.40;99.90
53053;DHT22;38934;52.690;6.184;2022-07-25T04:16:16;20.60;99.90
53053;DHT22;38934;52.690;6.184;2022-07-25T04:18:41;20.60;99.90
53053;DHT22;38934;52.690;6.184;2022-07-25T04:21:08;20.70;99.90
53053;DHT22;38934;52.690;6.184;2022-07-25T04:23:34;20.70;99.90
53053;DHT22;38934;52.690;6.184;2022-07-25T04:26:00;20.70;99.90
53053;DHT22;38934;52.690;6.184;2022-07-25T04:28:25;20.80;99.90
53053;DHT22;38934;52.690;6.184;2022-07-25T04:30:51;20.80;99.90
53053;DHT22;38934;52.690;6.184;2022-07-25T04:33:17;20.90;99.90
53053;DHT22;38934;52.690;6.184;2022-07-25T04:35:43;21.00;99.90
53053;DHT22;38934;52.690;6.184;2022-07-25T04:38:09;21.20;99.90
53053;DHT22;38934;52.690;6.184;2022-07-25T04:40:36;21.10;99.90
53053;DHT22;38934;52.690;6.184;2022-07-25T04:43:02;21.00;99.90
53053;DHT22;38934;52.690;6.184;2022-07-25T04:45:28;21.10;99.90
53053;DHT22;38934;52.690;6.184;2022-07-25T04:47:54;21.10;99.90
53053;DHT22;38934;52.690;6.184;2022-07-25T04:50:20;21.10;99.90
53053;DHT22;38934;52.690;6.184;2022-07-25T04:52:45;21.20;99.90
53053;DHT22;38934;52.690;6.184;2022-07-25T04:55:11;21.30;99.90
53053;DHT22;38934;52.690;6.184;2022-07-25T04:57:37;21.30;99.90
53053;DHT22;38934;52.690;6.184;2022-07-25T05:00:07;21.50;99.90
53053;DHT22;38934;52.690;6.184;2022-07-25T05:02:34;21.50;99.90
53053;DHT22;38934;52.690;6.184;2022-07-25T05:05:00;21.60;99.90
53053;DHT22;38934;52.690;6.184;2022-07-25T05:07:26;21.60;99.90
53053;DHT22;38934;52.690;6.184;2022-07-25T05:09:51;21.60;99.90
53053;DHT22;38934;52.690;6.184;2022-07-25T05:12:17;21.60;99.90
53053;DHT22;38934;52.690;6.184;2022-07-25T05:14:43;21.70;99.90
53053;DHT22;38934;52.690;6.184;2022-07-25T05:17:09;21.70;99.90
53053;DHT22;38934;52.690;6.184;2022-07-25T05:19:34;22.00;99.90
53053;DHT22;38934;52.690;6.184;2022-07-25T05:22:00;21.80;99.90
53053;DHT22;38934;52.690;6.184;2022-07-25T05:24:26;21.90;99.90
53053;DHT22;38934;52.690;6.184;2022-07-25T05:26:51;21.80;99.90
53053;DHT22;38934;52.690;6.184;2022-07-25T05:29:17;21.90;99.90
53053;DHT22;38934;52.690;6.184;2022-07-25T05:31:42;21.90;99.90
53053;DHT22;38934;52.690;6.184;2022-07-25T05:34:08;22.40;99.90
53053;DHT22;38934;52.690;6.184;2022-07-25T05:36:34;22.10;99.90
53053;DHT22;38934;52.690;6.184;2022-07-25T05:39:00;22.20;99.90
53053;DHT22;38934;52.690;6.184;2022-07-25T05:41:25;22.20;99.90
53053;DHT22;38934;52.690;6.184;2022-07-25T05:43:51;22.30;99.90
53053;DHT22;38934;52.690;6.184;2022-07-25T05:46:20;22.40;99.90
53053;DHT22;38934;52.690;6.184;2022-07-25T05:48:45;22.40;99.90
53053;DHT22;38934;52.690;6.184;2022-07-25T05:51:11;22.60;99.90
53053;DHT22;38934;52.690;6.184;2022-07-25T05:53:37;22.60;99.90
53053;DHT22;38934;52.690;6.184;2022-07-25T05:56:03;22.80;99.90
53053;DHT22;38934;52.690;6.184;2022-07-25T05:58:29;22.80;99.90
53053;DHT22;38934;52.690;6.184;2022-07-25T06:00:55;22.80;99.90
53053;DHT22;38934;52.690;6.184;2022-07-25T06:03:21;22.90;99.90
53053;DHT22;38934;52.690;6.184;2022-07-25T06:05:46;22.90;99.90
53053;DHT22;38934;52.690;6.184;2022-07-25T06:08:13;22.90;99.90
53053;DHT22;38934;52.690;6.184;2022-07-25T06:10:39;23.00;99.90
53053;DHT22;38934;52.690;6.184;2022-07-25T06:13:05;23.00;99.90
53053;DHT22;38934;52.690;6.184;2022-07-25T06:15:30;23.10;99.90
53053;DHT22;38934;52.690;6.184;2022-07-25T06:17:56;23.20;99.90
53053;DHT22;38934;52.690;6.184;2022-07-25T06:20:22;23.30;99.90
53053;DHT22;38934;52.690;6.184;2022-07-25T06:22:48;23.40;99.90
53053;DHT22;38934;52.690;6.184;2022-07-25T06:25:13;23.40;99.90
53053;DHT22;38934;52.690;6.184;2022-07-25T06:27:39;23.40;99.90
53053;DHT22;38934;52.690;6.184;2022-07-25T06:30:06;23.40;99.90
53053;DHT22;38934;52.690;6.184;2022-07-25T06:32:32;23.50;99.90
53053;DHT22;38934;52.690;6.184;2022-07-25T06:34:57;23.90;99.90
53053;DHT22;38934;52.690;6.184;2022-07-25T06:37:23;23.90;99.90
53053;DHT22;38934;52.690;6.184;2022-07-25T06:39:49;24.20;99.90
53053;DHT22;38934;52.690;6.184;2022-07-25T06:42:14;24.40;99.90
53053;DHT22;38934;52.690;6.184;2022-07-25T06:44:40;24.70;99.90
53053;DHT22;38934;52.690;6.184;2022-07-25T06:47:06;25.00;99.90
53053;DHT22;38934;52.690;6.184;2022-07-25T06:49:37;24.90;99.90
53053;DHT22;38934;52.690;6.184;2022-07-25T06:52:03;24.80;99.90
53053;DHT22;38934;52.690;6.184;2022-07-25T06:54:29;25.00;99.90
53053;DHT22;38934;52.690;6.184;2022-07-25T06:56:55;25.00;99.90
53053;DHT22;38934;52.690;6.184;2022-07-25T06:59:20;25.10;99.90
53053;DHT22;38934;52.690;6.184;2022-07-25T07:01:46;25.00;99.90
53053;DHT22;38934;52.690;6.184;2022-07-25T07:04:11;24.80;99.90
53053;DHT22;38934;52.690;6.184;2022-07-25T07:06:37;24.70;99.90
53053;DHT22;38934;52.690;6.184;2022-07-25T07:09:04;24.70;99.90
53053;DHT22;38934;52.690;6.184;2022-07-25T07:11:30;24.60;99.90
53053;DHT22;38934;52.690;6.184;2022-07-25T07:13:55;24.60;99.90
53053;DHT22;38934;52.690;6.184;2022-07-25T07:16:21;24.60;99.90
53053;DHT22;38934;52.690;6.184;2022-07-25T07:18:49;24.60;99.90
53053;DHT22;38934;52.690;6.184;2022-07-25T07:21:15;24.70;99.90
53053;DHT22;38934;52.690;6.184;2022-07-25T07:23:40;24.70;99.90
53053;DHT22;38934;52.690;6.184;2022-07-25T07:26:07;24.70;99.90
53053;DHT22;38934;52.690;6.184;2022-07-25T07:28:32;24.80;99.90
53053;DHT22;38934;52.690;6.184;2022-07-25T07:30:58;25.00;99.90
53053;DHT22;38934;52.690;6.184;2022-07-25T07:33:23;25.40;99.90
53053;DHT22;38934;52.690;6.184;2022-07-25T07:35:49;26.00;99.90
53053;DHT22;38934;52.690;6.184;2022-07-25T07:38:14;26.50;99.90
53053;DHT22;38934;52.690;6.184;2022-07-25T07:40:40;27.10;99.90
53053;DHT22;38934;52.690;6.184;2022-07-25T07:43:06;27.30;99.90
53053;DHT22;38934;52.690;6.184;2022-07-25T07:45:32;27.30;99.90
53053;DHT22;38934;52.690;6.184;2022-07-25T07:47:57;27.20;99.90
53053;DHT22;38934;52.690;6.184;2022-07-25T07:50:25;27.10;99.90
53053;DHT22;38934;52.690;6.184;2022-07-25T07:52:53;26.60;99.90
53053;DHT22;38934;52.690;6.184;2022-07-25T07:55:19;26.40;99.90
53053;DHT22;38934;52.690;6.184;2022-07-25T07:58:04;26.30;99.90
53053;DHT22;38934;52.690;6.184;2022-07-25T08:00:30;26.20;99.90
53053;DHT22;38934;52.690;6.184;2022-07-25T08:02:57;26.00;99.90
53053;DHT22;38934;52.690;6.184;2022-07-25T08:05:32;25.90;99.90
53053;DHT22;38934;52.690;6.184;2022-07-25T08:07:58;25.90;99.90
53053;DHT22;38934;52.690;6.184;2022-07-25T08:10:26;26.00;99.90
53053;DHT22;38934;52.690;6.184;2022-07-25T08:12:52;26.00;99.90
53053;DHT22;38934;52.690;6.184;2022-07-25T08:15:20;26.20;99.90
53053;DHT22;38934;52.690;6.184;2022-07-25T08:17:46;26.70;99.90
53053;DHT22;38934;52.690;6.184;2022-07-25T08:20:12;26.80;99.90
53053;DHT22;38934;52.690;6.184;2022-07-25T08:22:46;26.80;99.90
53053;DHT22;38934;52.690;6.184;2022-07-25T08:25:15;26.80;99.90
53053;DHT22;38934;52.690;6.184;2022-07-25T08:27:41;26.60;99.90
53053;DHT22;38934;52.690;6.184;2022-07-25T08:30:08;26.50;99.90
53053;DHT22;38934;52.690;6.184;2022-07-25T08:32:44;26.30;99.90
53053;DHT22;38934;52.690;6.184;2022-07-25T08:35:10;26.20;99.90
53053;DHT22;38934;52.690;6.184;2022-07-25T08:37:35;26.00;99.90
53053;DHT22;38934;52.690;6.184;2022-07-25T08:40:01;25.90;99.90
53053;DHT22;38934;52.690;6.184;2022-07-25T08:42:27;25.60;99.90
53053;DHT22;38934;52.690;6.184;2022-07-25T08:44:57;25.60;99.90
53053;DHT22;38934;52.690;6.184;2022-07-25T08:47:23;25.50;99.90
53053;DHT22;38934;52.690;6.184;2022-07-25T08:49:48;25.50;99.90
53053;DHT22;38934;52.690;6.184;2022-07-25T08:52:14;25.30;99.90
53053;DHT22;38934;52.690;6.184;2022-07-25T08:54:40;25.50;99.90
53053;DHT22;38934;52.690;6.184;2022-07-25T08:57:07;25.20;99.90
53053;DHT22;38934;52.690;6.184;2022-07-25T08:59:32;25.40;99.90
53053;DHT22;38934;52.690;6.184;2022-07-25T09:01:58;25.50;99.90
53053;DHT22;38934;52.690;6.184;2022-07-25T09:04:28;25.60;99.90
53053;DHT22;38934;52.690;6.184;2022-07-25T09:06:54;25.70;99.90
53053;DHT22;38934;52.690;6.184;2022-07-25T09:09:29;26.00;99.90
53053;DHT22;38934;52.690;6.184;2022-07-25T09:11:55;26.60;99.90
53053;DHT22;38934;52.690;6.184;2022-07-25T09:14:21;27.00;99.90
53053;DHT22;38934;52.690;6.184;2022-07-25T09:16:46;27.00;99.90
53053;DHT22;38934;52.690;6.184;2022-07-25T09:19:15;26.90;99.90
53053;DHT22;38934;52.690;6.184;2022-07-25T09:21:42;26.90;99.90
53053;DHT22;38934;52.690;6.184;2022-07-25T09:24:10;27.00;99.90
53053;DHT22;38934;52.690;6.184;2022-07-25T09:26:46;27.30;99.90
53053;DHT22;38934;52.690;6.184;2022-07-25T09:29:21;27.20;99.90
53053;DHT22;38934;52.690;6.184;2022-07-25T09:31:51;26.80;99.90
53053;DHT22;38934;52.690;6.184;2022-07-25T09:34:35;26.70;99.90
53053;DHT22;38934;52.690;6.184;2022-07-25T09:37:03;26.30;99.90
53053;DHT22;38934;52.690;6.184;2022-07-25T09:39:38;26.20;99.90
53053;DHT22;38934;52.690;6.184;2022-07-25T09:44:43;26.20;99.90
53053;DHT22;38934;52.690;6.184;2022-07-25T09:47:13;26.20;99.90
53053;DHT22;38934;52.690;6.184;2022-07-25T09:49:43;26.40;99.90
53053;DHT22;38934;52.690;6.184;2022-07-25T09:52:10;26.60;99.90
53053;DHT22;38934;52.690;6.184;2022-07-25T09:54:39;27.30;99.90
53053;DHT22;38934;52.690;6.184;2022-07-25T09:57:05;28.20;99.90
53053;DHT22;38934;52.690;6.184;2022-07-25T09:59:34;28.70;99.90
53053;DHT22;38934;52.690;6.184;2022-07-25T10:02:05;28.40;99.90
53053;DHT22;38934;52.690;6.184;2022-07-25T10:04:40;28.20;99.90
53053;DHT22;38934;52.690;6.184;2022-07-25T10:07:09;27.80;99.90
53053;DHT22;38934;52.690;6.184;2022-07-25T10:09:48;27.90;99.90
53053;DHT22;38934;52.690;6.184;2022-07-25T10:12:18;27.40;99.90
53053;DHT22;38934;52.690;6.184;2022-07-25T10:17:28;27.50;99.90
53053;DHT22;38934;52.690;6.184;2022-07-25T10:19:53;27.30;99.90
53053;DHT22;38934;52.690;6.184;2022-07-25T10:22:19;27.10;99.90
53053;DHT22;38934;52.690;6.184;2022-07-25T10:24:46;26.90;99.90
53053;DHT22;38934;52.690;6.184;2022-07-25T10:27:23;26.60;99.90
53053;DHT22;38934;52.690;6.184;2022-07-25T10:29:52;26.20;99.90
53053;DHT22;38934;52.690;6.184;2022-07-25T10:32:18;25.90;99.90
53053;DHT22;38934;52.690;6.184;2022-07-25T10:34:52;25.50;99.90
53053;DHT22;38934;52.690;6.184;2022-07-25T10:37:24;25.30;99.90
53053;DHT22;38934;52.690;6.184;2022-07-25T10:39:50;25.10;99.90
53053;DHT22;38934;52.690;6.184;2022-07-25T10:42:19;25.10;99.90
53053;DHT22;38934;52.690;6.184;2022-07-25T10:44:52;25.00;99.90
53053;DHT22;38934;52.690;6.184;2022-07-25T10:47:22;25.10;99.90
53053;DHT22;38934;52.690;6.184;2022-07-25T10:49:55;25.20;99.90
53053;DHT22;38934;52.690;6.184;2022-07-25T10:52:26;25.20;99.90
53053;DHT22;38934;52.690;6.184;2022-07-25T10:54:58;25.50;99.90
53053;DHT22;38934;52.690;6.184;2022-07-25T10:57:25;25.60;99.90
53053;DHT22;38934;52.690;6.184;2022-07-25T10:59:51;25.90;99.90
53053;DHT22;38934;52.690;6.184;2022-07-25T11:02:16;26.10;99.90
53053;DHT22;38934;52.690;6.184;2022-07-25T11:04:44;26.30;99.90
53053;DHT22;38934;52.690;6.184;2022-07-25T11:07:15;26.20;99.90
53053;DHT22;38934;52.690;6.184;2022-07-25T11:09:43;26.30;99.90
53053;DHT22;38934;52.690;6.184;2022-07-25T11:12:13;26.20;99.90
53053;DHT22;38934;52.690;6.184;2022-07-25T11:14:40;26.20;99.90
53053;DHT22;38934;52.690;6.184;2022-07-25T11:17:17;26.20;99.90
53053;DHT22;38934;52.690;6.184;2022-07-25T11:19:54;26.20;99.90
53053;DHT22;38934;52.690;6.184;2022-07-25T11:22:20;26.40;99.90
53053;DHT22;38934;52.690;6.184;2022-07-25T11:24:46;26.80;99.90
53053;DHT22;38934;52.690;6.184;2022-07-25T11:29:50;27.00;99.90
53053;DHT22;38934;52.690;6.184;2022-07-25T11:32:17;26.90;99.90
53053;DHT22;38934;52.690;6.184;2022-07-25T11:34:46;26.70;99.90
53053;DHT22;38934;52.690;6.184;2022-07-25T11:37:14;26.60;99.90
53053;DHT22;38934;52.690;6.184;2022-07-25T11:39:42;26.20;99.90
53053;DHT22;38934;52.690;6.184;2022-07-25T11:42:10;26.00;99.90
53053;DHT22;38934;52.690;6.184;2022-07-25T11:44:39;25.90;99.90
53053;DHT22;38934;52.690;6.184;2022-07-25T11:47:07;25.60;99.90
53053;DHT22;38934;52.690;6.184;2022-07-25T11:49:47;25.20;99.90
53053;DHT22;38934;52.690;6.184;2022-07-25T11:54:54;25.20;99.90
53053;DHT22;38934;52.690;6.184;2022-07-25T11:57:25;25.20;99.90
53053;DHT22;38934;52.690;6.184;2022-07-25T11:59:52;25.30;99.90
53053;DHT22;38934;52.690;6.184;2022-07-25T12:02:31;25.40;99.90
53053;DHT22;38934;52.690;6.184;2022-07-25T12:04:59;25.60;99.90
53053;DHT22;38934;52.690;6.184;2022-07-25T12:07:53;25.60;99.90
53053;DHT22;38934;52.690;6.184;2022-07-25T12:10:30;25.60;99.90
53053;DHT22;38934;52.690;6.184;2022-07-25T12:12:57;25.70;99.90
53053;DHT22;38934;52.690;6.184;2022-07-25T12:15:28;26.00;99.90
53053;DHT22;38934;52.690;6.184;2022-07-25T12:17:55;26.20;99.90
53053;DHT22;38934;52.690;6.184;2022-07-25T12:20:24;26.20;99.90
53053;DHT22;38934;52.690;6.184;2022-07-25T12:22:52;26.30;99.90
53053;DHT22;38934;52.690;6.184;2022-07-25T12:25:18;26.20;99.90
53053;DHT22;38934;52.690;6.184;2022-07-25T12:27:45;26.10;99.90
53053;DHT22;38934;52.690;6.184;2022-07-25T12:30:11;26.00;99.90
53053;DHT22;38934;52.690;6.184;2022-07-25T12:32:37;26.00;99.90
53053;DHT22;38934;52.690;6.184;2022-07-25T12:35:05;26.10;99.90
53053;DHT22;38934;52.690;6.184;2022-07-25T12:37:31;26.00;99.90
53053;DHT22;38934;52.690;6.184;2022-07-25T12:39:57;26.00;99.90
53053;DHT22;38934;52.690;6.184;2022-07-25T12:42:23;25.90;99.90
53053;DHT22;38934;52.690;6.184;2022-07-25T12:44:49;25.90;99.90
53053;DHT22;38934;52.690;6.184;2022-07-25T12:47:14;25.70;99.90
53053;DHT22;38934;52.690;6.184;2022-07-25T12:49:40;25.50;99.90
53053;DHT22;38934;52.690;6.184;2022-07-25T12:52:05;25.20;99.90
53053;DHT22;38934;52.690;6.184;2022-07-25T12:54:32;24.90;99.90
53053;DHT22;38934;52.690;6.184;2022-07-25T12:56:57;24.70;99.90
53053;DHT22;38934;52.690;6.184;2022-07-25T12:59:23;24.50;99.90
53053;DHT22;38934;52.690;6.184;2022-07-25T13:01:48;24.10;99.90
53053;DHT22;38934;52.690;6.184;2022-07-25T13:04:14;23.80;99.90
53053;DHT22;38934;52.690;6.184;2022-07-25T13:06:40;23.60;99.90
53053;DHT22;38934;52.690;6.184;2022-07-25T13:09:06;23.50;99.90
53053;DHT22;38934;52.690;6.184;2022-07-25T13:11:32;23.50;99.90
53053;DHT22;38934;52.690;6.184;2022-07-25T13:13:57;23.10;99.90
53053;DHT22;38934;52.690;6.184;2022-07-25T13:16:23;23.00;99.90
53053;DHT22;38934;52.690;6.184;2022-07-25T13:18:48;23.00;99.90
53053;DHT22;38934;52.690;6.184;2022-07-25T13:21:14;22.80;99.90
53053;DHT22;38934;52.690;6.184;2022-07-25T13:23:40;22.90;99.90
53053;DHT22;38934;52.690;6.184;2022-07-25T13:26:07;22.90;99.90
53053;DHT22;38934;52.690;6.184;2022-07-25T13:28:33;22.90;99.90
53053;DHT22;38934;52.690;6.184;2022-07-25T13:30:59;23.00;99.90
53053;DHT22;38934;52.690;6.184;2022-07-25T13:33:26;23.20;99.90
53053;DHT22;38934;52.690;6.184;2022-07-25T13:35:52;23.50;99.90
53053;DHT22;38934;52.690;6.184;2022-07-25T13:38:18;23.70;99.90
53053;DHT22;38934;52.690;6.184;2022-07-25T13:40:43;24.00;99.90
53053;DHT22;38934;52.690;6.184;2022-07-25T13:43:11;24.10;99.90
53053;DHT22;38934;52.690;6.184;2022-07-25T13:45:37;24.20;99.90
53053;DHT22;38934;52.690;6.184;2022-07-25T13:48:04;24.30;99.90
53053;DHT22;38934;52.690;6.184;2022-07-25T13:50:30;24.30;99.90
53053;DHT22;38934;52.690;6.184;2022-07-25T13:52:56;24.10;99.90
53053;DHT22;38934;52.690;6.184;2022-07-25T13:55:24;24.00;99.90
53053;DHT22;38934;52.690;6.184;2022-07-25T13:57:50;23.90;99.90
53053;DHT22;38934;52.690;6.184;2022-07-25T14:00:16;23.70;99.90
53053;DHT22;38934;52.690;6.184;2022-07-25T14:02:41;23.70;99.90
53053;DHT22;38934;52.690;6.184;2022-07-25T14:05:07;23.70;99.90
53053;DHT22;38934;52.690;6.184;2022-07-25T14:07:34;23.90;99.90
53053;DHT22;38934;52.690;6.184;2022-07-25T14:10:00;24.00;99.90
53053;DHT22;38934;52.690;6.184;2022-07-25T14:12:26;24.50;99.90
53053;DHT22;38934;52.690;6.184;2022-07-25T14:14:52;24.80;99.90
53053;DHT22;38934;52.690;6.184;2022-07-25T14:17:17;25.20;99.90
53053;DHT22;38934;52.690;6.184;2022-07-25T14:19:43;25.20;99.90
53053;DHT22;38934;52.690;6.184;2022-07-25T14:22:08;25.40;99.90
53053;DHT22;38934;52.690;6.184;2022-07-25T14:24:34;25.60;99.90
53053;DHT22;38934;52.690;6.184;2022-07-25T14:27:00;25.50;99.90
53053;DHT22;38934;52.690;6.184;2022-07-25T14:29:26;25.80;99.90
53053;DHT22;38934;52.690;6.184;2022-07-25T14:31:52;25.90;99.90
53053;DHT22;38934;52.690;6.184;2022-07-25T14:34:18;25.90;99.90
53053;DHT22;38934;52.690;6.184;2022-07-25T14:36:44;25.70;99.90
53053;DHT22;38934;52.690;6.184;2022-07-25T14:39:12;25.80;99.90
53053;DHT22;38934;52.690;6.184;2022-07-25T14:41:38;25.90;99.90
53053;DHT22;38934;52.690;6.184;2022-07-25T14:44:04;25.90;99.90
53053;DHT22;38934;52.690;6.184;2022-07-25T14:46:29;25.80;99.90
53053;DHT22;38934;52.690;6.184;2022-07-25T14:48:55;25.90;99.90
53053;DHT22;38934;52.690;6.184;2022-07-25T14:51:22;26.00;99.90
53053;DHT22;38934;52.690;6.184;2022-07-25T14:53:47;26.10;99.90
53053;DHT22;38934;52.690;6.184;2022-07-25T14:56:13;25.90;99.90
53053;DHT22;38934;52.690;6.184;2022-07-25T14:58:39;26.10;99.90
53053;DHT22;38934;52.690;6.184;2022-07-25T15:01:04;26.00;99.90
53053;DHT22;38934;52.690;6.184;2022-07-25T15:03:30;25.80;99.90
53053;DHT22;38934;52.690;6.184;2022-07-25T15:05:56;25.50;99.90
53053;DHT22;38934;52.690;6.184;2022-07-25T15:08:22;25.40;99.90
53053;DHT22;38934;52.690;6.184;2022-07-25T15:10:50;25.40;99.90
53053;DHT22;38934;52.690;6.184;2022-07-25T15:13:16;25.50;99.90
53053;DHT22;38934;52.690;6.184;2022-07-25T15:15:42;25.50;99.90
53053;DHT22;38934;52.690;6.184;2022-07-25T15:18:07;25.40;99.90
53053;DHT22;38934;52.690;6.184;2022-07-25T15:20:33;25.20;99.90
53053;DHT22;38934;52.690;6.184;2022-07-25T15:22:59;25.00;99.90
53053;DHT22;38934;52.690;6.184;2022-07-25T15:25:25;24.90;99.90
53053;DHT22;38934;52.690;6.184;2022-07-25T15:27:50;24.80;99.90
53053;DHT22;38934;52.690;6.184;2022-07-25T15:30:16;24.70;99.90
53053;DHT22;38934;52.690;6.184;2022-07-25T15:32:42;24.50;99.90
53053;DHT22;38934;52.690;6.184;2022-07-25T15:35:08;24.60;99.90
53053;DHT22;38934;52.690;6.184;2022-07-25T15:37:34;24.50;99.90